sensor_id;sensor_type;location;lat;lon;timestamp;P1;durP1;ratioP1;P2;durP2;ratioP2
58372;SDS011;44177;43.356;27.672;2022-12-10T00:00:37;16.60;;;8.27;;
58372;SDS011;44177;43.356;27.672;2022-12-10T00:03:02;16.60;;;7.88;;
58372;SDS011;44177;43.356;27.672;2022-12-10T00:05:28;18.05;;;8.55;;
58372;SDS011;44177;43.356;27.672;2022-12-10T00:07:54;20.90;;;8.70;;
58372;SDS011;44177;43.356;27.672;2022-12-10T00:10:19;18.90;;;8.80;;
58372;SDS011;44177;43.356;27.672;2022-12-10T00:12:45;14.05;;;8.27;;
58372;SDS011;44177;43.356;27.672;2022-12-10T00:15:10;21.52;;;8.48;;
58372;SDS011;44177;43.356;27.672;2022-12-10T00:17:35;16.70;;;8.45;;
58372;SDS011;44177;43.356;27.672;2022-12-10T00:20:01;19.75;;;8.52;;
58372;SDS011;44177;43.356;27.672;2022-12-10T00:22:27;21.25;;;8.63;;
58372;SDS011;44177;43.356;27.672;2022-12-10T00:24:53;21.55;;;8.68;;
58372;SDS011;44177;43.356;27.672;2022-12-10T00:27:18;15.07;;;8.43;;
58372;SDS011;44177;43.356;27.672;2022-12-10T00:29:44;17.52;;;8.80;;
58372;SDS011;44177;43.356;27.672;2022-12-10T00:32:09;17.52;;;8.70;;
58372;SDS011;44177;43.356;27.672;2022-12-10T00:34:35;18.75;;;8.55;;
58372;SDS011;44177;43.356;27.672;2022-12-10T00:37:00;14.25;;;8.25;;
58372;SDS011;44177;43.356;27.672;2022-12-10T00:39:26;16.70;;;9.18;;
58372;SDS011;44177;43.356;27.672;2022-12-10T00:41:51;23.13;;;9.27;;
58372;SDS011;44177;43.356;27.672;2022-12-10T00:44:16;17.60;;;8.80;;
58372;SDS011;44177;43.356;27.672;2022-12-10T00:46:42;16.58;;;9.23;;
58372;SDS011;44177;43.356;27.672;2022-12-10T00:49:08;19.30;;;9.35;;
58372;SDS011;44177;43.356;27.672;2022-12-10T00:51:34;17.73;;;8.43;;
58372;SDS011;44177;43.356;27.672;2022-12-10T00:54:00;20.70;;;8.57;;
58372;SDS011;44177;43.356;27.672;2022-12-10T00:56:27;17.05;;;8.70;;
58372;SDS011;44177;43.356;27.672;2022-12-10T00:58:54;19.70;;;9.35;;
58372;SDS011;44177;43.356;27.672;2022-12-10T01:01:25;23.02;;;9.80;;
58372;SDS011;44177;43.356;27.672;2022-12-10T01:04:00;18.67;;;9.00;;
58372;SDS011;44177;43.356;27.672;2022-12-10T01:08:57;16.50;;;8.93;;
58372;SDS011;44177;43.356;27.672;2022-12-10T01:11:29;17.02;;;8.85;;
58372;SDS011;44177;43.356;27.672;2022-12-10T01:13:56;16.98;;;9.18;;
58372;SDS011;44177;43.356;27.672;2022-12-10T01:16:23;17.58;;;8.93;;
58372;SDS011;44177;43.356;27.672;2022-12-10T01:18:52;17.30;;;8.45;;
58372;SDS011;44177;43.356;27.672;2022-12-10T01:21:19;18.00;;;9.10;;
58372;SDS011;44177;43.356;27.672;2022-12-10T01:23:46;16.58;;;8.88;;
58372;SDS011;44177;43.356;27.672;2022-12-10T01:26:14;15.63;;;9.15;;
58372;SDS011;44177;43.356;27.672;2022-12-10T01:28:42;21.50;;;8.95;;
58372;SDS011;44177;43.356;27.672;2022-12-10T01:31:09;19.70;;;9.20;;
58372;SDS011;44177;43.356;27.672;2022-12-10T01:33:37;14.80;;;8.50;;
58372;SDS011;44177;43.356;27.672;2022-12-10T01:36:10;18.17;;;8.82;;
58372;SDS011;44177;43.356;27.672;2022-12-10T01:38:46;16.05;;;8.82;;
58372;SDS011;44177;43.356;27.672;2022-12-10T01:41:13;19.95;;;8.82;;
58372;SDS011;44177;43.356;27.672;2022-12-10T01:43:48;18.98;;;8.57;;
58372;SDS011;44177;43.356;27.672;2022-12-10T01:46:26;19.38;;;9.10;;
58372;SDS011;44177;43.356;27.672;2022-12-10T01:49:04;19.70;;;9.30;;
58372;SDS011;44177;43.356;27.672;2022-12-10T01:51:31;14.70;;;8.65;;
58372;SDS011;44177;43.356;27.672;2022-12-10T01:54:00;18.77;;;9.13;;
58372;SDS011;44177;43.356;27.672;2022-12-10T01:56:25;19.55;;;10.23;;
58372;SDS011;44177;43.356;27.672;2022-12-10T01:58:51;20.63;;;10.02;;
58372;SDS011;44177;43.356;27.672;2022-12-10T02:06:44;15.52;;;9.10;;
58372;SDS011;44177;43.356;27.672;2022-12-10T02:14:16;17.15;;;9.32;;
58372;SDS011;44177;43.356;27.672;2022-12-10T02:16:50;19.77;;;9.55;;
58372;SDS011;44177;43.356;27.672;2022-12-10T02:21:45;17.75;;;9.25;;
58372;SDS011;44177;43.356;27.672;2022-12-10T02:24:18;16.92;;;9.38;;
58372;SDS011;44177;43.356;27.672;2022-12-10T02:29:43;20.33;;;8.63;;
58372;SDS011;44177;43.356;27.672;2022-12-10T02:32:55;22.17;;;10.02;;
58372;SDS011;44177;43.356;27.672;2022-12-10T02:35:11;19.48;;;9.68;;
58372;SDS011;44177;43.356;27.672;2022-12-10T02:37:45;15.07;;;8.93;;
58372;SDS011;44177;43.356;27.672;2022-12-10T02:40:18;16.77;;;9.13;;
58372;SDS011;44177;43.356;27.672;2022-12-10T02:42:48;21.00;;;9.60;;
58372;SDS011;44177;43.356;27.672;2022-12-10T02:45:15;17.38;;;9.40;;
58372;SDS011;44177;43.356;27.672;2022-12-10T02:47:41;17.45;;;9.30;;
58372;SDS011;44177;43.356;27.672;2022-12-10T02:50:09;20.38;;;10.00;;
58372;SDS011;44177;43.356;27.672;2022-12-10T02:52:37;20.92;;;9.82;;
58372;SDS011;44177;43.356;27.672;2022-12-10T02:55:03;16.10;;;9.25;;
58372;SDS011;44177;43.356;27.672;2022-12-10T03:00:16;17.02;;;9.82;;
58372;SDS011;44177;43.356;27.672;2022-12-10T03:05:35;18.23;;;9.25;;
58372;SDS011;44177;43.356;27.672;2022-12-10T03:08:10;18.00;;;9.07;;
58372;SDS011;44177;43.356;27.672;2022-12-10T03:13:11;15.50;;;9.75;;
58372;SDS011;44177;43.356;27.672;2022-12-10T03:15:40;21.33;;;9.52;;
58372;SDS011;44177;43.356;27.672;2022-12-10T03:18:07;18.65;;;9.07;;
58372;SDS011;44177;43.356;27.672;2022-12-10T03:20:36;20.83;;;9.45;;
58372;SDS011;44177;43.356;27.672;2022-12-10T03:23:03;20.35;;;9.25;;
58372;SDS011;44177;43.356;27.672;2022-12-10T03:25:33;21.08;;;9.95;;
58372;SDS011;44177;43.356;27.672;2022-12-10T03:28:00;18.48;;;9.43;;
58372;SDS011;44177;43.356;27.672;2022-12-10T03:30:26;18.02;;;9.75;;
58372;SDS011;44177;43.356;27.672;2022-12-10T03:32:55;15.65;;;8.95;;
58372;SDS011;44177;43.356;27.672;2022-12-10T03:35:21;19.13;;;9.23;;
58372;SDS011;44177;43.356;27.672;2022-12-10T03:37:48;19.08;;;9.63;;
58372;SDS011;44177;43.356;27.672;2022-12-10T03:40:15;17.48;;;9.32;;
58372;SDS011;44177;43.356;27.672;2022-12-10T03:42:42;27.08;;;10.48;;
58372;SDS011;44177;43.356;27.672;2022-12-10T03:45:08;16.48;;;9.18;;
58372;SDS011;44177;43.356;27.672;2022-12-10T03:47:34;16.45;;;8.98;;
58372;SDS011;44177;43.356;27.672;2022-12-10T03:50:00;18.40;;;9.18;;
58372;SDS011;44177;43.356;27.672;2022-12-10T03:52:25;16.20;;;9.57;;
58372;SDS011;44177;43.356;27.672;2022-12-10T03:54:50;21.98;;;10.02;;
58372;SDS011;44177;43.356;27.672;2022-12-10T03:57:16;18.08;;;9.43;;
58372;SDS011;44177;43.356;27.672;2022-12-10T03:59:41;16.20;;;9.23;;
58372;SDS011;44177;43.356;27.672;2022-12-10T04:02:07;20.25;;;9.45;;
58372;SDS011;44177;43.356;27.672;2022-12-10T04:04:32;18.35;;;10.00;;
58372;SDS011;44177;43.356;27.672;2022-12-10T04:06:58;16.92;;;9.75;;
58372;SDS011;44177;43.356;27.672;2022-12-10T04:09:23;16.50;;;9.02;;
58372;SDS011;44177;43.356;27.672;2022-12-10T04:11:49;19.77;;;9.60;;
58372;SDS011;44177;43.356;27.672;2022-12-10T04:14:14;18.08;;;8.95;;
58372;SDS011;44177;43.356;27.672;2022-12-10T04:16:59;18.02;;;9.80;;
58372;SDS011;44177;43.356;27.672;2022-12-10T04:19:24;16.55;;;9.27;;
58372;SDS011;44177;43.356;27.672;2022-12-10T04:21:50;22.27;;;9.65;;
58372;SDS011;44177;43.356;27.672;2022-12-10T04:24:35;19.33;;;9.50;;
58372;SDS011;44177;43.356;27.672;2022-12-10T04:27:21;18.55;;;9.68;;
58372;SDS011;44177;43.356;27.672;2022-12-10T04:29:49;18.50;;;9.25;;
58372;SDS011;44177;43.356;27.672;2022-12-10T04:32:15;13.95;;;8.63;;
58372;SDS011;44177;43.356;27.672;2022-12-10T04:34:41;14.70;;;8.60;;
58372;SDS011;44177;43.356;27.672;2022-12-10T04:37:06;20.13;;;9.80;;
58372;SDS011;44177;43.356;27.672;2022-12-10T04:39:32;20.60;;;9.63;;
58372;SDS011;44177;43.356;27.672;2022-12-10T04:41:59;19.98;;;9.57;;
58372;SDS011;44177;43.356;27.672;2022-12-10T04:44:25;15.85;;;8.68;;
58372;SDS011;44177;43.356;27.672;2022-12-10T04:46:51;19.92;;;9.50;;
58372;SDS011;44177;43.356;27.672;2022-12-10T04:49:17;20.77;;;9.02;;
58372;SDS011;44177;43.356;27.672;2022-12-10T04:51:43;18.27;;;9.15;;
58372;SDS011;44177;43.356;27.672;2022-12-10T04:54:09;19.42;;;9.40;;
58372;SDS011;44177;43.356;27.672;2022-12-10T04:56:35;19.30;;;8.95;;
58372;SDS011;44177;43.356;27.672;2022-12-10T04:59:01;19.02;;;9.32;;
58372;SDS011;44177;43.356;27.672;2022-12-10T05:01:27;15.05;;;9.00;;
58372;SDS011;44177;43.356;27.672;2022-12-10T05:03:53;19.77;;;9.68;;
58372;SDS011;44177;43.356;27.672;2022-12-10T05:06:20;17.20;;;9.10;;
58372;SDS011;44177;43.356;27.672;2022-12-10T05:08:46;17.63;;;9.23;;
58372;SDS011;44177;43.356;27.672;2022-12-10T05:11:13;21.02;;;9.27;;
58372;SDS011;44177;43.356;27.672;2022-12-10T05:13:43;17.88;;;8.52;;
58372;SDS011;44177;43.356;27.672;2022-12-10T05:16:10;20.05;;;9.25;;
58372;SDS011;44177;43.356;27.672;2022-12-10T05:18:37;19.88;;;9.07;;
58372;SDS011;44177;43.356;27.672;2022-12-10T05:21:04;18.08;;;8.77;;
58372;SDS011;44177;43.356;27.672;2022-12-10T05:23:32;15.05;;;8.82;;
58372;SDS011;44177;43.356;27.672;2022-12-10T05:28:28;19.67;;;10.13;;
58372;SDS011;44177;43.356;27.672;2022-12-10T05:30:58;15.88;;;8.07;;
58372;SDS011;44177;43.356;27.672;2022-12-10T05:33:24;20.33;;;9.63;;
58372;SDS011;44177;43.356;27.672;2022-12-10T05:35:51;16.80;;;8.90;;
58372;SDS011;44177;43.356;27.672;2022-12-10T05:38:21;19.40;;;9.20;;
58372;SDS011;44177;43.356;27.672;2022-12-10T05:40:47;16.20;;;9.27;;
58372;SDS011;44177;43.356;27.672;2022-12-10T05:43:13;19.08;;;9.63;;
58372;SDS011;44177;43.356;27.672;2022-12-10T05:45:38;16.13;;;9.30;;
58372;SDS011;44177;43.356;27.672;2022-12-10T05:48:04;15.73;;;8.90;;
58372;SDS011;44177;43.356;27.672;2022-12-10T05:50:31;14.80;;;9.00;;
58372;SDS011;44177;43.356;27.672;2022-12-10T05:52:57;18.10;;;8.52;;
58372;SDS011;44177;43.356;27.672;2022-12-10T05:55:23;18.17;;;9.07;;
58372;SDS011;44177;43.356;27.672;2022-12-10T05:57:48;16.88;;;8.82;;
58372;SDS011;44177;43.356;27.672;2022-12-10T06:00:14;24.25;;;9.18;;
58372;SDS011;44177;43.356;27.672;2022-12-10T06:02:40;16.58;;;8.73;;
58372;SDS011;44177;43.356;27.672;2022-12-10T06:05:05;18.33;;;8.98;;
58372;SDS011;44177;43.356;27.672;2022-12-10T06:07:31;17.45;;;8.38;;
58372;SDS011;44177;43.356;27.672;2022-12-10T06:09:56;22.02;;;8.55;;
58372;SDS011;44177;43.356;27.672;2022-12-10T06:12:22;17.90;;;8.40;;
58372;SDS011;44177;43.356;27.672;2022-12-10T06:14:47;18.00;;;8.52;;
58372;SDS011;44177;43.356;27.672;2022-12-10T06:17:13;16.20;;;8.65;;
58372;SDS011;44177;43.356;27.672;2022-12-10T06:19:38;15.73;;;8.38;;
58372;SDS011;44177;43.356;27.672;2022-12-10T06:22:04;22.17;;;9.43;;
58372;SDS011;44177;43.356;27.672;2022-12-10T06:24:29;29.65;;;9.73;;
58372;SDS011;44177;43.356;27.672;2022-12-10T06:26:55;33.10;;;12.63;;
58372;SDS011;44177;43.356;27.672;2022-12-10T06:29:20;40.65;;;11.57;;
58372;SDS011;44177;43.356;27.672;2022-12-10T06:31:46;31.67;;;12.05;;
58372;SDS011;44177;43.356;27.672;2022-12-10T06:34:11;36.42;;;12.27;;
58372;SDS011;44177;43.356;27.672;2022-12-10T06:36:36;29.52;;;11.40;;
58372;SDS011;44177;43.356;27.672;2022-12-10T06:39:02;31.70;;;11.73;;
58372;SDS011;44177;43.356;27.672;2022-12-10T06:41:28;28.27;;;11.48;;
58372;SDS011;44177;43.356;27.672;2022-12-10T06:43:54;61.97;;;13.18;;
58372;SDS011;44177;43.356;27.672;2022-12-10T06:46:23;25.70;;;10.98;;
58372;SDS011;44177;43.356;27.672;2022-12-10T06:48:49;27.10;;;10.48;;
58372;SDS011;44177;43.356;27.672;2022-12-10T06:51:15;25.70;;;8.90;;
58372;SDS011;44177;43.356;27.672;2022-12-10T06:53:42;24.98;;;8.88;;
58372;SDS011;44177;43.356;27.672;2022-12-10T06:56:13;23.50;;;9.75;;
58372;SDS011;44177;43.356;27.672;2022-12-10T06:58:43;24.33;;;8.75;;
58372;SDS011;44177;43.356;27.672;2022-12-10T07:01:10;21.83;;;9.80;;
58372;SDS011;44177;43.356;27.672;2022-12-10T07:03:35;24.15;;;10.05;;
58372;SDS011;44177;43.356;27.672;2022-12-10T07:06:01;24.73;;;10.02;;
58372;SDS011;44177;43.356;27.672;2022-12-10T07:08:28;24.50;;;10.25;;
58372;SDS011;44177;43.356;27.672;2022-12-10T07:10:53;18.08;;;9.68;;
58372;SDS011;44177;43.356;27.672;2022-12-10T07:13:19;18.35;;;9.65;;
58372;SDS011;44177;43.356;27.672;2022-12-10T07:15:45;21.38;;;8.65;;
58372;SDS011;44177;43.356;27.672;2022-12-10T07:18:11;20.20;;;9.93;;
58372;SDS011;44177;43.356;27.672;2022-12-10T07:20:36;19.63;;;9.50;;
58372;SDS011;44177;43.356;27.672;2022-12-10T07:23:01;22.55;;;9.38;;
58372;SDS011;44177;43.356;27.672;2022-12-10T07:25:27;23.42;;;9.63;;
58372;SDS011;44177;43.356;27.672;2022-12-10T07:27:52;20.38;;;8.77;;
58372;SDS011;44177;43.356;27.672;2022-12-10T07:30:18;24.75;;;9.30;;
58372;SDS011;44177;43.356;27.672;2022-12-10T07:32:43;24.77;;;9.50;;
58372;SDS011;44177;43.356;27.672;2022-12-10T07:35:09;33.60;;;19.63;;
58372;SDS011;44177;43.356;27.672;2022-12-10T07:37:34;40.58;;;23.58;;
58372;SDS011;44177;43.356;27.672;2022-12-10T07:39:59;44.95;;;27.00;;
58372;SDS011;44177;43.356;27.672;2022-12-10T07:42:25;96.43;;;53.03;;
58372;SDS011;44177;43.356;27.672;2022-12-10T07:44:50;169.63;;;106.53;;
58372;SDS011;44177;43.356;27.672;2022-12-10T07:47:16;113.60;;;67.68;;
58372;SDS011;44177;43.356;27.672;2022-12-10T07:49:41;185.52;;;113.00;;
58372;SDS011;44177;43.356;27.672;2022-12-10T07:52:07;181.20;;;108.25;;
58372;SDS011;44177;43.356;27.672;2022-12-10T07:54:33;150.30;;;91.18;;
58372;SDS011;44177;43.356;27.672;2022-12-10T07:56:58;210.80;;;126.07;;
58372;SDS011;44177;43.356;27.672;2022-12-10T07:59:24;217.82;;;137.82;;
58372;SDS011;44177;43.356;27.672;2022-12-10T08:01:49;195.82;;;121.18;;
58372;SDS011;44177;43.356;27.672;2022-12-10T08:04:15;207.63;;;124.35;;
58372;SDS011;44177;43.356;27.672;2022-12-10T08:06:40;205.10;;;118.80;;
58372;SDS011;44177;43.356;27.672;2022-12-10T08:09:06;173.05;;;106.00;;
58372;SDS011;44177;43.356;27.672;2022-12-10T08:11:31;166.73;;;95.97;;
58372;SDS011;44177;43.356;27.672;2022-12-10T08:13:57;156.68;;;93.30;;
58372;SDS011;44177;43.356;27.672;2022-12-10T08:16:24;151.20;;;90.65;;
58372;SDS011;44177;43.356;27.672;2022-12-10T08:18:52;154.60;;;89.30;;
58372;SDS011;44177;43.356;27.672;2022-12-10T08:21:19;139.55;;;83.53;;
58372;SDS011;44177;43.356;27.672;2022-12-10T08:23:45;135.60;;;80.38;;
58372;SDS011;44177;43.356;27.672;2022-12-10T08:26:12;133.07;;;77.00;;
58372;SDS011;44177;43.356;27.672;2022-12-10T08:28:41;159.35;;;93.88;;
58372;SDS011;44177;43.356;27.672;2022-12-10T08:31:07;183.60;;;109.68;;
58372;SDS011;44177;43.356;27.672;2022-12-10T08:33:35;208.13;;;120.82;;
58372;SDS011;44177;43.356;27.672;2022-12-10T08:36:01;199.27;;;117.63;;
58372;SDS011;44177;43.356;27.672;2022-12-10T08:38:28;304.83;;;180.20;;
58372;SDS011;44177;43.356;27.672;2022-12-10T08:40:54;321.95;;;198.50;;
58372;SDS011;44177;43.356;27.672;2022-12-10T08:43:20;290.80;;;179.60;;
58372;SDS011;44177;43.356;27.672;2022-12-10T08:45:45;289.20;;;175.27;;
58372;SDS011;44177;43.356;27.672;2022-12-10T08:48:11;287.13;;;174.35;;
58372;SDS011;44177;43.356;27.672;2022-12-10T08:50:37;290.88;;;173.07;;
58372;SDS011;44177;43.356;27.672;2022-12-10T08:53:03;283.42;;;166.75;;
58372;SDS011;44177;43.356;27.672;2022-12-10T08:55:28;284.80;;;174.73;;
58372;SDS011;44177;43.356;27.672;2022-12-10T08:57:54;286.92;;;168.63;;
58372;SDS011;44177;43.356;27.672;2022-12-10T09:00:21;273.30;;;171.45;;
58372;SDS011;44177;43.356;27.672;2022-12-10T09:02:47;267.85;;;163.70;;
58372;SDS011;44177;43.356;27.672;2022-12-10T09:05:12;291.27;;;178.77;;
58372;SDS011;44177;43.356;27.672;2022-12-10T09:07:38;271.77;;;167.35;;
58372;SDS011;44177;43.356;27.672;2022-12-10T09:10:03;264.52;;;164.13;;
58372;SDS011;44177;43.356;27.672;2022-12-10T09:12:29;307.40;;;197.27;;
58372;SDS011;44177;43.356;27.672;2022-12-10T09:14:55;287.25;;;187.52;;
58372;SDS011;44177;43.356;27.672;2022-12-10T09:17:21;398.38;;;251.60;;
58372;SDS011;44177;43.356;27.672;2022-12-10T09:19:46;393.90;;;247.30;;
58372;SDS011;44177;43.356;27.672;2022-12-10T09:22:12;479.73;;;314.17;;
58372;SDS011;44177;43.356;27.672;2022-12-10T09:24:38;508.95;;;333.75;;
58372;SDS011;44177;43.356;27.672;2022-12-10T09:27:03;508.40;;;333.30;;
58372;SDS011;44177;43.356;27.672;2022-12-10T09:29:29;511.42;;;342.30;;
58372;SDS011;44177;43.356;27.672;2022-12-10T09:31:54;507.77;;;341.20;;
58372;SDS011;44177;43.356;27.672;2022-12-10T09:34:20;542.00;;;368.42;;
58372;SDS011;44177;43.356;27.672;2022-12-10T09:36:46;508.48;;;339.13;;
58372;SDS011;44177;43.356;27.672;2022-12-10T09:39:12;470.10;;;314.98;;
58372;SDS011;44177;43.356;27.672;2022-12-10T09:47:01;322.58;;;208.40;;
58372;SDS011;44177;43.356;27.672;2022-12-10T09:52:13;276.95;;;181.00;;
58372;SDS011;44177;43.356;27.672;2022-12-10T09:57:11;229.50;;;156.60;;
58372;SDS011;44177;43.356;27.672;2022-12-10T09:59:48;240.68;;;153.05;;
58372;SDS011;44177;43.356;27.672;2022-12-10T10:04:53;207.38;;;133.88;;
58372;SDS011;44177;43.356;27.672;2022-12-10T10:07:24;189.88;;;123.60;;
58372;SDS011;44177;43.356;27.672;2022-12-10T10:09:55;182.57;;;119.25;;
58372;SDS011;44177;43.356;27.672;2022-12-10T10:12:26;165.30;;;112.18;;
58372;SDS011;44177;43.356;27.672;2022-12-10T10:14:52;163.15;;;108.65;;
58372;SDS011;44177;43.356;27.672;2022-12-10T10:17:22;154.20;;;101.05;;
58372;SDS011;44177;43.356;27.672;2022-12-10T10:19:55;142.85;;;98.13;;
58372;SDS011;44177;43.356;27.672;2022-12-10T10:22:21;139.30;;;91.82;;
58372;SDS011;44177;43.356;27.672;2022-12-10T10:24:46;135.57;;;87.20;;
58372;SDS011;44177;43.356;27.672;2022-12-10T10:27:14;127.38;;;82.88;;
58372;SDS011;44177;43.356;27.672;2022-12-10T10:29:42;118.32;;;75.68;;
58372;SDS011;44177;43.356;27.672;2022-12-10T10:32:43;112.72;;;71.65;;
58372;SDS011;44177;43.356;27.672;2022-12-10T10:35:00;104.78;;;65.63;;
58372;SDS011;44177;43.356;27.672;2022-12-10T10:39:58;88.47;;;58.08;;
58372;SDS011;44177;43.356;27.672;2022-12-10T10:42:26;86.80;;;55.50;;
58372;SDS011;44177;43.356;27.672;2022-12-10T10:45:03;76.63;;;51.67;;
58372;SDS011;44177;43.356;27.672;2022-12-10T10:47:31;77.85;;;49.60;;
58372;SDS011;44177;43.356;27.672;2022-12-10T10:49:59;75.45;;;48.67;;
58372;SDS011;44177;43.356;27.672;2022-12-10T10:52:28;74.00;;;45.20;;
58372;SDS011;44177;43.356;27.672;2022-12-10T10:54:59;64.40;;;43.53;;
58372;SDS011;44177;43.356;27.672;2022-12-10T10:57:29;61.67;;;41.08;;
58372;SDS011;44177;43.356;27.672;2022-12-10T11:02:53;55.35;;;36.60;;
58372;SDS011;44177;43.356;27.672;2022-12-10T11:07:49;53.28;;;35.08;;
58372;SDS011;44177;43.356;27.672;2022-12-10T11:10:23;46.15;;;29.00;;
58372;SDS011;44177;43.356;27.672;2022-12-10T11:12:57;41.03;;;24.77;;
58372;SDS011;44177;43.356;27.672;2022-12-10T11:18:01;35.17;;;19.27;;
58372;SDS011;44177;43.356;27.672;2022-12-10T11:20:31;28.67;;;16.95;;
58372;SDS011;44177;43.356;27.672;2022-12-10T11:23:00;31.80;;;15.73;;
58372;SDS011;44177;43.356;27.672;2022-12-10T11:28:00;23.30;;;12.02;;
58372;SDS011;44177;43.356;27.672;2022-12-10T11:30:38;27.40;;;12.02;;
58372;SDS011;44177;43.356;27.672;2022-12-10T11:51:53;17.15;;;8.63;;
58372;SDS011;44177;43.356;27.672;2022-12-10T11:59:52;24.88;;;8.48;;
58372;SDS011;44177;43.356;27.672;2022-12-10T12:06:03;17.70;;;8.50;;
58372;SDS011;44177;43.356;27.672;2022-12-10T12:14:28;22.77;;;8.98;;
58372;SDS011;44177;43.356;27.672;2022-12-10T12:19:44;21.60;;;9.52;;
58372;SDS011;44177;43.356;27.672;2022-12-10T12:22:24;19.25;;;8.38;;
58372;SDS011;44177;43.356;27.672;2022-12-10T12:24:57;24.23;;;8.13;;
58372;SDS011;44177;43.356;27.672;2022-12-10T12:27:28;19.02;;;7.65;;
58372;SDS011;44177;43.356;27.672;2022-12-10T12:30:21;19.33;;;7.68;;
58372;SDS011;44177;43.356;27.672;2022-12-10T12:32:57;18.02;;;7.68;;
58372;SDS011;44177;43.356;27.672;2022-12-10T12:35:29;20.00;;;8.45;;
58372;SDS011;44177;43.356;27.672;2022-12-10T12:45:59;17.02;;;7.68;;
58372;SDS011;44177;43.356;27.672;2022-12-10T12:51:11;14.82;;;7.53;;
58372;SDS011;44177;43.356;27.672;2022-12-10T12:53:44;19.50;;;7.45;;
58372;SDS011;44177;43.356;27.672;2022-12-10T13:04:13;14.15;;;6.60;;
58372;SDS011;44177;43.356;27.672;2022-12-10T13:06:40;21.15;;;7.25;;
58372;SDS011;44177;43.356;27.672;2022-12-10T13:11:38;22.77;;;7.03;;
58372;SDS011;44177;43.356;27.672;2022-12-10T13:21:59;16.15;;;6.97;;
58372;SDS011;44177;43.356;27.672;2022-12-10T13:32:20;25.65;;;7.78;;
58372;SDS011;44177;43.356;27.672;2022-12-10T13:34:46;25.40;;;9.32;;
58372;SDS011;44177;43.356;27.672;2022-12-10T13:37:31;21.55;;;8.57;;
58372;SDS011;44177;43.356;27.672;2022-12-10T13:40:36;25.20;;;8.70;;
58372;SDS011;44177;43.356;27.672;2022-12-10T13:42:56;20.48;;;7.70;;
58372;SDS011;44177;43.356;27.672;2022-12-10T13:45:41;20.58;;;8.20;;
58372;SDS011;44177;43.356;27.672;2022-12-10T13:48:18;18.88;;;7.55;;
58372;SDS011;44177;43.356;27.672;2022-12-10T13:51:13;18.10;;;7.47;;
58372;SDS011;44177;43.356;27.672;2022-12-10T13:57:00;21.38;;;7.35;;
58372;SDS011;44177;43.356;27.672;2022-12-10T13:59:45;18.95;;;7.68;;
58372;SDS011;44177;43.356;27.672;2022-12-10T14:07:38;23.48;;;7.15;;
58372;SDS011;44177;43.356;27.672;2022-12-10T14:10:08;18.05;;;7.25;;
58372;SDS011;44177;43.356;27.672;2022-12-10T14:12:40;23.73;;;7.18;;
58372;SDS011;44177;43.356;27.672;2022-12-10T14:15:08;19.15;;;6.68;;
58372;SDS011;44177;43.356;27.672;2022-12-10T14:17:43;16.15;;;6.93;;
58372;SDS011;44177;43.356;27.672;2022-12-10T14:20:20;15.68;;;6.75;;
58372;SDS011;44177;43.356;27.672;2022-12-10T14:22:49;20.98;;;6.93;;
58372;SDS011;44177;43.356;27.672;2022-12-10T14:25:18;15.82;;;6.93;;
58372;SDS011;44177;43.356;27.672;2022-12-10T14:27:49;15.45;;;7.25;;
58372;SDS011;44177;43.356;27.672;2022-12-10T14:30:17;16.70;;;6.60;;
58372;SDS011;44177;43.356;27.672;2022-12-10T14:32:43;20.95;;;7.53;;
58372;SDS011;44177;43.356;27.672;2022-12-10T14:35:13;18.83;;;6.35;;
58372;SDS011;44177;43.356;27.672;2022-12-10T14:37:42;16.73;;;7.13;;
58372;SDS011;44177;43.356;27.672;2022-12-10T14:40:12;14.95;;;6.55;;
58372;SDS011;44177;43.356;27.672;2022-12-10T14:42:46;20.05;;;6.45;;
58372;SDS011;44177;43.356;27.672;2022-12-10T14:45:13;14.43;;;6.57;;
58372;SDS011;44177;43.356;27.672;2022-12-10T14:47:40;18.85;;;6.70;;
58372;SDS011;44177;43.356;27.672;2022-12-10T14:50:13;14.27;;;6.85;;
58372;SDS011;44177;43.356;27.672;2022-12-10T14:52:42;15.85;;;6.47;;
58372;SDS011;44177;43.356;27.672;2022-12-10T14:55:16;17.17;;;6.55;;
58372;SDS011;44177;43.356;27.672;2022-12-10T14:57:46;13.05;;;6.68;;
58372;SDS011;44177;43.356;27.672;2022-12-10T15:00:19;21.13;;;6.97;;
58372;SDS011;44177;43.356;27.672;2022-12-10T15:02:51;14.27;;;6.57;;
58372;SDS011;44177;43.356;27.672;2022-12-10T15:05:23;17.40;;;6.60;;
58372;SDS011;44177;43.356;27.672;2022-12-10T15:10:26;16.90;;;6.40;;
58372;SDS011;44177;43.356;27.672;2022-12-10T15:12:57;14.23;;;6.38;;
58372;SDS011;44177;43.356;27.672;2022-12-10T15:17:57;15.15;;;6.80;;
58372;SDS011;44177;43.356;27.672;2022-12-10T15:28:31;17.95;;;6.95;;
58372;SDS011;44177;43.356;27.672;2022-12-10T15:33:57;15.18;;;6.15;;
58372;SDS011;44177;43.356;27.672;2022-12-10T15:41:49;13.32;;;6.03;;
58372;SDS011;44177;43.356;27.672;2022-12-10T15:47:17;9.05;;;6.00;;
58372;SDS011;44177;43.356;27.672;2022-12-10T15:49:44;15.13;;;5.95;;
58372;SDS011;44177;43.356;27.672;2022-12-10T15:52:14;16.65;;;6.10;;
58372;SDS011;44177;43.356;27.672;2022-12-10T15:54:44;14.60;;;6.57;;
58372;SDS011;44177;43.356;27.672;2022-12-10T15:57:12;17.63;;;6.35;;
58372;SDS011;44177;43.356;27.672;2022-12-10T15:59:38;14.05;;;6.00;;
58372;SDS011;44177;43.356;27.672;2022-12-10T16:02:24;15.18;;;6.15;;
58372;SDS011;44177;43.356;27.672;2022-12-10T16:04:52;12.63;;;6.25;;
58372;SDS011;44177;43.356;27.672;2022-12-10T16:07:17;13.68;;;5.85;;
58372;SDS011;44177;43.356;27.672;2022-12-10T16:09:43;16.90;;;6.60;;
58372;SDS011;44177;43.356;27.672;2022-12-10T16:12:10;12.10;;;5.90;;
58372;SDS011;44177;43.356;27.672;2022-12-10T16:14:41;12.10;;;5.35;;
58372;SDS011;44177;43.356;27.672;2022-12-10T16:17:13;14.18;;;5.78;;
58372;SDS011;44177;43.356;27.672;2022-12-10T16:19:38;10.52;;;5.40;;
58372;SDS011;44177;43.356;27.672;2022-12-10T16:22:04;12.95;;;6.35;;
58372;SDS011;44177;43.356;27.672;2022-12-10T16:24:30;13.40;;;5.82;;
58372;SDS011;44177;43.356;27.672;2022-12-10T16:26:55;12.80;;;5.97;;
58372;SDS011;44177;43.356;27.672;2022-12-10T16:29:21;13.50;;;5.80;;
58372;SDS011;44177;43.356;27.672;2022-12-10T16:31:46;13.50;;;5.80;;
58372;SDS011;44177;43.356;27.672;2022-12-10T16:34:12;14.02;;;6.38;;
58372;SDS011;44177;43.356;27.672;2022-12-10T16:36:37;12.20;;;5.72;;
58372;SDS011;44177;43.356;27.672;2022-12-10T16:39:03;12.70;;;5.80;;
58372;SDS011;44177;43.356;27.672;2022-12-10T16:41:30;10.45;;;5.43;;
58372;SDS011;44177;43.356;27.672;2022-12-10T16:43:56;9.48;;;5.53;;
58372;SDS011;44177;43.356;27.672;2022-12-10T16:46:21;10.55;;;5.85;;
58372;SDS011;44177;43.356;27.672;2022-12-10T16:48:47;13.02;;;6.10;;
58372;SDS011;44177;43.356;27.672;2022-12-10T16:51:18;11.40;;;5.70;;
58372;SDS011;44177;43.356;27.672;2022-12-10T16:53:48;12.45;;;5.38;;
58372;SDS011;44177;43.356;27.672;2022-12-10T16:56:14;7.32;;;5.35;;
58372;SDS011;44177;43.356;27.672;2022-12-10T16:58:40;10.48;;;5.25;;
58372;SDS011;44177;43.356;27.672;2022-12-10T17:01:22;15.52;;;6.43;;